sensor_id;sensor_type;location;lat;lon;timestamp;P1;durP1;ratioP1;P2;durP2;ratioP2
77160;SDS011;66135;0.000;0.000;2024-03-25T00:00:38;1.23;;;0.38;;
77160;SDS011;66135;0.000;0.000;2024-03-25T00:03:03;0.60;;;0.10;;
77160;SDS011;66135;0.000;0.000;2024-03-25T00:05:29;1.55;;;0.30;;
77160;SDS011;66135;0.000;0.000;2024-03-25T00:07:55;1.20;;;0.13;;
77160;SDS011;66135;0.000;0.000;2024-03-25T00:12:47;2.03;;;0.15;;
77160;SDS011;66135;0.000;0.000;2024-03-25T00:15:17;1.67;;;0.28;;
77160;SDS011;66135;0.000;0.000;2024-03-25T00:17:44;2.25;;;0.10;;
77160;SDS011;66135;0.000;0.000;2024-03-25T00:22:35;2.83;;;0.20;;
77160;SDS011;66135;0.000;0.000;2024-03-25T00:25:00;1.67;;;0.30;;
77160;SDS011;66135;0.000;0.000;2024-03-25T00:27:26;2.42;;;0.30;;
77160;SDS011;66135;0.000;0.000;2024-03-25T00:29:51;1.48;;;0.30;;
77160;SDS011;66135;0.000;0.000;2024-03-25T00:32:17;2.20;;;0.30;;
77160;SDS011;66135;0.000;0.000;2024-03-25T00:37:07;0.80;;;0.20;;
77160;SDS011;66135;0.000;0.000;2024-03-25T00:39:33;1.60;;;0.32;;
77160;SDS011;66135;0.000;0.000;2024-03-25T00:41:59;1.27;;;0.28;;
77160;SDS011;66135;0.000;0.000;2024-03-25T00:44:25;2.20;;;0.38;;
77160;SDS011;66135;0.000;0.000;2024-03-25T00:46:50;2.53;;;0.55;;
77160;SDS011;66135;0.000;0.000;2024-03-25T00:49:16;1.23;;;0.20;;
77160;SDS011;66135;0.000;0.000;2024-03-25T00:51:41;1.15;;;0.20;;
77160;SDS011;66135;0.000;0.000;2024-03-25T00:54:07;1.85;;;0.20;;
77160;SDS011;66135;0.000;0.000;2024-03-25T00:58:58;4.60;;;0.20;;
77160;SDS011;66135;0.000;0.000;2024-03-25T01:01:27;2.28;;;0.17;;
77160;SDS011;66135;0.000;0.000;2024-03-25T01:03:53;1.75;;;0.10;;
77160;SDS011;66135;0.000;0.000;2024-03-25T01:06:19;2.90;;;0.22;;
77160;SDS011;66135;0.000;0.000;2024-03-25T01:08:44;1.50;;;0.32;;
77160;SDS011;66135;0.000;0.000;2024-03-25T01:11:09;1.30;;;0.17;;
77160;SDS011;66135;0.000;0.000;2024-03-25T01:13:35;2.22;;;0.15;;
77160;SDS011;66135;0.000;0.000;2024-03-25T01:18:25;2.17;;;0.23;;
77160;SDS011;66135;0.000;0.000;2024-03-25T01:23:16;0.97;;;0.10;;
77160;SDS011;66135;0.000;0.000;2024-03-25T01:28:06;0.87;;;0.20;;
77160;SDS011;66135;0.000;0.000;2024-03-25T01:30:32;1.52;;;0.10;;
77160;SDS011;66135;0.000;0.000;2024-03-25T01:33:00;1.83;;;0.22;;
77160;SDS011;66135;0.000;0.000;2024-03-25T01:35:26;2.38;;;0.30;;
77160;SDS011;66135;0.000;0.000;2024-03-25T01:37:51;3.10;;;0.60;;
77160;SDS011;66135;0.000;0.000;2024-03-25T01:40:17;1.75;;;0.15;;
77160;SDS011;66135;0.000;0.000;2024-03-25T01:45:09;2.08;;;0.28;;
77160;SDS011;66135;0.000;0.000;2024-03-25T01:47:35;3.03;;;0.30;;
77160;SDS011;66135;0.000;0.000;2024-03-25T01:50:02;1.58;;;0.30;;
77160;SDS011;66135;0.000;0.000;2024-03-25T01:52:28;1.80;;;0.25;;
77160;SDS011;66135;0.000;0.000;2024-03-25T01:54:55;1.20;;;0.10;;
77160;SDS011;66135;0.000;0.000;2024-03-25T01:57:21;2.17;;;0.17;;
77160;SDS011;66135;0.000;0.000;2024-03-25T01:59:46;1.52;;;0.10;;
77160;SDS011;66135;0.000;0.000;2024-03-25T02:02:12;1.85;;;0.20;;
77160;SDS011;66135;0.000;0.000;2024-03-25T02:04:41;1.00;;;0.10;;
77160;SDS011;66135;0.000;0.000;2024-03-25T02:07:07;1.95;;;0.22;;
77160;SDS011;66135;0.000;0.000;2024-03-25T02:09:33;3.50;;;0.40;;
77160;SDS011;66135;0.000;0.000;2024-03-25T02:12:00;1.52;;;0.30;;
77160;SDS011;66135;0.000;0.000;2024-03-25T02:14:27;2.72;;;0.52;;
77160;SDS011;66135;0.000;0.000;2024-03-25T02:16:52;0.73;;;0.20;;
77160;SDS011;66135;0.000;0.000;2024-03-25T02:19:18;2.80;;;0.22;;
77160;SDS011;66135;0.000;0.000;2024-03-25T02:21:43;1.10;;;0.25;;
77160;SDS011;66135;0.000;0.000;2024-03-25T02:24:09;1.92;;;0.50;;
77160;SDS011;66135;0.000;0.000;2024-03-25T02:26:37;1.55;;;0.30;;
77160;SDS011;66135;0.000;0.000;2024-03-25T02:29:02;1.45;;;0.28;;
77160;SDS011;66135;0.000;0.000;2024-03-25T02:31:28;2.47;;;0.30;;
77160;SDS011;66135;0.000;0.000;2024-03-25T02:33:53;1.45;;;0.22;;
77160;SDS011;66135;0.000;0.000;2024-03-25T02:36:18;1.40;;;0.20;;
77160;SDS011;66135;0.000;0.000;2024-03-25T02:38:44;2.20;;;0.22;;
77160;SDS011;66135;0.000;0.000;2024-03-25T02:41:09;1.85;;;0.13;;
77160;SDS011;66135;0.000;0.000;2024-03-25T02:43:35;0.43;;;0.10;;
77160;SDS011;66135;0.000;0.000;2024-03-25T02:46:00;2.60;;;0.15;;
77160;SDS011;66135;0.000;0.000;2024-03-25T02:48:26;2.55;;;0.05;;
77160;SDS011;66135;0.000;0.000;2024-03-25T02:50:51;1.13;;;0.10;;
77160;SDS011;66135;0.000;0.000;2024-03-25T02:53:17;3.00;;;0.32;;
77160;SDS011;66135;0.000;0.000;2024-03-25T02:55:42;1.63;;;0.47;;
77160;SDS011;66135;0.000;0.000;2024-03-25T02:58:07;1.20;;;0.15;;
77160;SDS011;66135;0.000;0.000;2024-03-25T03:00:33;1.67;;;0.20;;
77160;SDS011;66135;0.000;0.000;2024-03-25T03:02:59;3.22;;;0.30;;
77160;SDS011;66135;0.000;0.000;2024-03-25T03:05:24;0.90;;;0.43;;
77160;SDS011;66135;0.000;0.000;2024-03-25T03:07:49;3.08;;;0.30;;
77160;SDS011;66135;0.000;0.000;2024-03-25T03:10:15;2.15;;;0.30;;
77160;SDS011;66135;0.000;0.000;2024-03-25T03:12:41;0.68;;;0.22;;
77160;SDS011;66135;0.000;0.000;2024-03-25T03:15:06;1.08;;;0.22;;
77160;SDS011;66135;0.000;0.000;2024-03-25T03:17:32;3.25;;;0.20;;
77160;SDS011;66135;0.000;0.000;2024-03-25T03:19:57;1.48;;;0.10;;
77160;SDS011;66135;0.000;0.000;2024-03-25T03:22:23;1.75;;;0.20;;
77160;SDS011;66135;0.000;0.000;2024-03-25T03:24:48;1.73;;;0.45;;
77160;SDS011;66135;0.000;0.000;2024-03-25T03:27:13;2.30;;;0.40;;
77160;SDS011;66135;0.000;0.000;2024-03-25T03:29:39;1.88;;;0.45;;
77160;SDS011;66135;0.000;0.000;2024-03-25T03:32:04;2.97;;;0.63;;
77160;SDS011;66135;0.000;0.000;2024-03-25T03:34:29;1.48;;;0.10;;
77160;SDS011;66135;0.000;0.000;2024-03-25T03:36:55;0.60;;;0.10;;
77160;SDS011;66135;0.000;0.000;2024-03-25T03:39:20;1.67;;;0.05;;
77160;SDS011;66135;0.000;0.000;2024-03-25T03:41:45;2.58;;;0.30;;
77160;SDS011;66135;0.000;0.000;2024-03-25T03:44:11;1.88;;;0.20;;
77160;SDS011;66135;0.000;0.000;2024-03-25T03:46:38;2.00;;;0.20;;
77160;SDS011;66135;0.000;0.000;2024-03-25T03:49:03;2.40;;;0.20;;
77160;SDS011;66135;0.000;0.000;2024-03-25T03:51:28;1.65;;;0.13;;
77160;SDS011;66135;0.000;0.000;2024-03-25T03:53:54;2.00;;;0.20;;
77160;SDS011;66135;0.000;0.000;2024-03-25T03:56:19;1.52;;;0.20;;
77160;SDS011;66135;0.000;0.000;2024-03-25T03:58:44;2.08;;;0.30;;
77160;SDS011;66135;0.000;0.000;2024-03-25T04:01:16;3.35;;;0.43;;
77160;SDS011;66135;0.000;0.000;2024-03-25T04:03:42;1.25;;;0.40;;
77160;SDS011;66135;0.000;0.000;2024-03-25T04:06:09;2.08;;;0.20;;
77160;SDS011;66135;0.000;0.000;2024-03-25T04:08:36;2.10;;;0.40;;
77160;SDS011;66135;0.000;0.000;2024-03-25T04:11:02;1.30;;;0.55;;
77160;SDS011;66135;0.000;0.000;2024-03-25T04:13:27;1.70;;;0.20;;
77160;SDS011;66135;0.000;0.000;2024-03-25T04:15:52;1.70;;;0.25;;
77160;SDS011;66135;0.000;0.000;2024-03-25T04:18:18;1.77;;;0.22;;
77160;SDS011;66135;0.000;0.000;2024-03-25T04:20:44;2.03;;;0.35;;
77160;SDS011;66135;0.000;0.000;2024-03-25T04:23:09;1.80;;;0.10;;
77160;SDS011;66135;0.000;0.000;2024-03-25T04:25:35;1.42;;;0.20;;
77160;SDS011;66135;0.000;0.000;2024-03-25T04:28:04;1.25;;;0.25;;
77160;SDS011;66135;0.000;0.000;2024-03-25T04:30:32;1.30;;;0.32;;
77160;SDS011;66135;0.000;0.000;2024-03-25T04:32:58;1.17;;;0.20;;
77160;SDS011;66135;0.000;0.000;2024-03-25T04:35:24;1.48;;;0.20;;
77160;SDS011;66135;0.000;0.000;2024-03-25T04:37:49;2.58;;;0.30;;
77160;SDS011;66135;0.000;0.000;2024-03-25T05:58:01;0.90;;;0.40;;
77160;SDS011;66135;0.000;0.000;2024-03-25T06:00:28;1.80;;;0.20;;
77160;SDS011;66135;0.000;0.000;2024-03-25T06:02:53;1.13;;;0.10;;
77160;SDS011;66135;0.000;0.000;2024-03-25T06:05:19;1.45;;;0.50;;
77160;SDS011;66135;0.000;0.000;2024-03-25T06:07:44;1.45;;;0.30;;
77160;SDS011;66135;0.000;0.000;2024-03-25T06:10:10;2.10;;;0.40;;
77160;SDS011;66135;0.000;0.000;2024-03-25T06:12:35;1.90;;;0.32;;
77160;SDS011;66135;0.000;0.000;2024-03-25T06:15:01;2.10;;;0.38;;
77160;SDS011;66135;0.000;0.000;2024-03-25T06:17:26;1.58;;;0.40;;
77160;SDS011;66135;0.000;0.000;2024-03-25T06:19:51;1.13;;;0.32;;
77160;SDS011;66135;0.000;0.000;2024-03-25T06:22:17;0.98;;;0.30;;
77160;SDS011;66135;0.000;0.000;2024-03-25T06:24:42;3.03;;;0.32;;
77160;SDS011;66135;0.000;0.000;2024-03-25T06:27:09;1.33;;;0.40;;
77160;SDS011;66135;0.000;0.000;2024-03-25T06:29:34;1.70;;;0.30;;
77160;SDS011;66135;0.000;0.000;2024-03-25T06:32:00;3.00;;;0.50;;
77160;SDS011;66135;0.000;0.000;2024-03-25T06:34:45;3.33;;;0.93;;
77160;SDS011;66135;0.000;0.000;2024-03-25T06:37:10;2.38;;;0.25;;
77160;SDS011;66135;0.000;0.000;2024-03-25T06:39:35;1.88;;;0.20;;
77160;SDS011;66135;0.000;0.000;2024-03-25T06:42:01;0.85;;;0.22;;
77160;SDS011;66135;0.000;0.000;2024-03-25T06:44:27;1.48;;;0.55;;
77160;SDS011;66135;0.000;0.000;2024-03-25T06:46:52;1.83;;;0.20;;
77160;SDS011;66135;0.000;0.000;2024-03-25T06:49:18;1.83;;;0.40;;
77160;SDS011;66135;0.000;0.000;2024-03-25T06:51:43;0.68;;;0.10;;
77160;SDS011;66135;0.000;0.000;2024-03-25T06:54:08;1.77;;;0.30;;
77160;SDS011;66135;0.000;0.000;2024-03-25T06:56:34;2.85;;;0.30;;
77160;SDS011;66135;0.000;0.000;2024-03-25T06:58:59;1.10;;;0.20;;
77160;SDS011;66135;0.000;0.000;2024-03-25T07:01:24;3.20;;;0.30;;
77160;SDS011;66135;0.000;0.000;2024-03-25T07:03:50;2.22;;;0.60;;
77160;SDS011;66135;0.000;0.000;2024-03-25T07:06:16;2.42;;;0.45;;
77160;SDS011;66135;0.000;0.000;2024-03-25T07:08:42;1.80;;;0.20;;
77160;SDS011;66135;0.000;0.000;2024-03-25T07:11:07;2.40;;;0.68;;
77160;SDS011;66135;0.000;0.000;2024-03-25T07:13:32;1.15;;;0.20;;
77160;SDS011;66135;0.000;0.000;2024-03-25T07:15:58;2.63;;;0.40;;
77160;SDS011;66135;0.000;0.000;2024-03-25T07:18:24;6.10;;;0.68;;
77160;SDS011;66135;0.000;0.000;2024-03-25T07:20:49;2.38;;;0.43;;
77160;SDS011;66135;0.000;0.000;2024-03-25T07:23:14;2.75;;;0.75;;
77160;SDS011;66135;0.000;0.000;2024-03-25T07:25:40;1.42;;;0.20;;
77160;SDS011;66135;0.000;0.000;2024-03-25T07:28:05;2.75;;;0.47;;
77160;SDS011;66135;0.000;0.000;2024-03-25T07:30:34;1.33;;;0.13;;
77160;SDS011;66135;0.000;0.000;2024-03-25T07:33:00;1.45;;;0.35;;
77160;SDS011;66135;0.000;0.000;2024-03-25T07:35:25;2.78;;;0.40;;
77160;SDS011;66135;0.000;0.000;2024-03-25T07:37:50;1.58;;;0.20;;
77160;SDS011;66135;0.000;0.000;2024-03-25T07:40:19;1.15;;;0.22;;
77160;SDS011;66135;0.000;0.000;2024-03-25T07:42:46;1.05;;;0.38;;
77160;SDS011;66135;0.000;0.000;2024-03-25T07:45:11;1.27;;;0.35;;
77160;SDS011;66135;0.000;0.000;2024-03-25T07:47:37;2.58;;;0.77;;
77160;SDS011;66135;0.000;0.000;2024-03-25T07:50:02;2.60;;;0.20;;
77160;SDS011;66135;0.000;0.000;2024-03-25T07:52:28;2.45;;;0.20;;
77160;SDS011;66135;0.000;0.000;2024-03-25T07:54:54;1.58;;;0.45;;
77160;SDS011;66135;0.000;0.000;2024-03-25T07:59:45;1.25;;;0.25;;
77160;SDS011;66135;0.000;0.000;2024-03-25T08:02:11;1.42;;;0.20;;
77160;SDS011;66135;0.000;0.000;2024-03-25T08:04:36;1.30;;;0.22;;
77160;SDS011;66135;0.000;0.000;2024-03-25T08:07:02;2.13;;;0.60;;
77160;SDS011;66135;0.000;0.000;2024-03-25T08:09:27;2.03;;;0.30;;
77160;SDS011;66135;0.000;0.000;2024-03-25T08:11:53;1.83;;;0.30;;
77160;SDS011;66135;0.000;0.000;2024-03-25T08:14:18;1.15;;;0.30;;
77160;SDS011;66135;0.000;0.000;2024-03-25T08:16:44;2.22;;;0.45;;
77160;SDS011;66135;0.000;0.000;2024-03-25T08:19:10;0.93;;;0.30;;
77160;SDS011;66135;0.000;0.000;2024-03-25T08:21:35;1.90;;;0.47;;
77160;SDS011;66135;0.000;0.000;2024-03-25T08:24:00;2.17;;;0.40;;
77160;SDS011;66135;0.000;0.000;2024-03-25T08:26:26;2.80;;;0.70;;
77160;SDS011;66135;0.000;0.000;2024-03-25T08:28:51;2.25;;;0.40;;
77160;SDS011;66135;0.000;0.000;2024-03-25T08:31:17;1.77;;;0.38;;
77160;SDS011;66135;0.000;0.000;2024-03-25T08:33:42;1.88;;;0.32;;
77160;SDS011;66135;0.000;0.000;2024-03-25T08:36:07;1.92;;;0.70;;
77160;SDS011;66135;0.000;0.000;2024-03-25T08:38:33;1.00;;;0.30;;
77160;SDS011;66135;0.000;0.000;2024-03-25T08:40:59;2.95;;;0.57;;
77160;SDS011;66135;0.000;0.000;2024-03-25T08:43:24;2.30;;;0.65;;
77160;SDS011;66135;0.000;0.000;2024-03-25T08:45:50;5.03;;;0.70;;
77160;SDS011;66135;0.000;0.000;2024-03-25T08:50:40;2.28;;;1.08;;
77160;SDS011;66135;0.000;0.000;2024-03-25T08:53:06;3.78;;;0.88;;
77160;SDS011;66135;0.000;0.000;2024-03-25T08:55:31;4.03;;;0.88;;
77160;SDS011;66135;0.000;0.000;2024-03-25T08:57:57;4.30;;;0.90;;
77160;SDS011;66135;0.000;0.000;2024-03-25T09:00:24;2.72;;;0.82;;
77160;SDS011;66135;0.000;0.000;2024-03-25T09:02:51;2.22;;;0.73;;
77160;SDS011;66135;0.000;0.000;2024-03-25T09:05:16;2.40;;;0.70;;
77160;SDS011;66135;0.000;0.000;2024-03-25T09:07:43;2.83;;;1.02;;
77160;SDS011;66135;0.000;0.000;2024-03-25T09:10:16;1.95;;;0.80;;
77160;SDS011;66135;0.000;0.000;2024-03-25T09:13:00;3.00;;;0.80;;
77160;SDS011;66135;0.000;0.000;2024-03-25T09:15:25;4.57;;;1.08;;
77160;SDS011;66135;0.000;0.000;2024-03-25T09:17:51;3.75;;;0.98;;
77160;SDS011;66135;0.000;0.000;2024-03-25T09:20:16;1.88;;;0.65;;
77160;SDS011;66135;0.000;0.000;2024-03-25T09:22:42;4.03;;;1.15;;
77160;SDS011;66135;0.000;0.000;2024-03-25T09:25:09;6.95;;;1.50;;
77160;SDS011;66135;0.000;0.000;2024-03-25T09:27:34;3.10;;;1.05;;
77160;SDS011;66135;0.000;0.000;2024-03-25T09:30:00;2.13;;;1.15;;
77160;SDS011;66135;0.000;0.000;2024-03-25T09:32:25;2.40;;;0.95;;
77160;SDS011;66135;0.000;0.000;2024-03-25T09:34:51;3.95;;;0.93;;
77160;SDS011;66135;0.000;0.000;2024-03-25T09:39:42;5.38;;;1.23;;
77160;SDS011;66135;0.000;0.000;2024-03-25T09:44:33;5.25;;;1.13;;
77160;SDS011;66135;0.000;0.000;2024-03-25T09:46:59;7.35;;;1.70;;
77160;SDS011;66135;0.000;0.000;2024-03-25T09:49:25;4.45;;;1.50;;
77160;SDS011;66135;0.000;0.000;2024-03-25T09:51:52;5.40;;;2.13;;
77160;SDS011;66135;0.000;0.000;2024-03-25T09:54:17;5.13;;;1.63;;
77160;SDS011;66135;0.000;0.000;2024-03-25T09:59:08;3.47;;;1.30;;
77160;SDS011;66135;0.000;0.000;2024-03-25T10:01:34;3.58;;;0.95;;
77160;SDS011;66135;0.000;0.000;2024-03-25T10:04:00;7.38;;;1.70;;
77160;SDS011;66135;0.000;0.000;2024-03-25T10:06:25;5.82;;;1.50;;
77160;SDS011;66135;0.000;0.000;2024-03-25T10:08:53;4.45;;;1.35;;
77160;SDS011;66135;0.000;0.000;2024-03-25T10:11:19;4.97;;;1.30;;
77160;SDS011;66135;0.000;0.000;2024-03-25T10:13:44;5.72;;;1.65;;
77160;SDS011;66135;0.000;0.000;2024-03-25T10:16:10;4.55;;;1.35;;
77160;SDS011;66135;0.000;0.000;2024-03-25T10:18:35;5.32;;;1.52;;
77160;SDS011;66135;0.000;0.000;2024-03-25T10:21:01;3.10;;;1.60;;
77160;SDS011;66135;0.000;0.000;2024-03-25T10:23:28;5.57;;;1.40;;
77160;SDS011;66135;0.000;0.000;2024-03-25T10:25:54;5.35;;;1.55;;
77160;SDS011;66135;0.000;0.000;2024-03-25T10:28:19;4.07;;;1.85;;
77160;SDS011;66135;0.000;0.000;2024-03-25T10:30:45;5.13;;;1.48;;
77160;SDS011;66135;0.000;0.000;2024-03-25T10:33:11;5.97;;;1.75;;
77160;SDS011;66135;0.000;0.000;2024-03-25T10:35:37;3.72;;;1.42;;
77160;SDS011;66135;0.000;0.000;2024-03-25T10:38:04;5.50;;;1.17;;
77160;SDS011;66135;0.000;0.000;2024-03-25T10:40:32;3.78;;;1.00;;
77160;SDS011;66135;0.000;0.000;2024-03-25T10:43:08;4.97;;;1.33;;
77160;SDS011;66135;0.000;0.000;2024-03-25T10:45:42;3.42;;;1.00;;
77160;SDS011;66135;0.000;0.000;2024-03-25T10:48:29;2.78;;;1.27;;
77160;SDS011;66135;0.000;0.000;2024-03-25T10:50:59;5.18;;;1.35;;
77160;SDS011;66135;0.000;0.000;2024-03-25T10:53:27;4.65;;;1.15;;
77160;SDS011;66135;0.000;0.000;2024-03-25T10:55:54;6.30;;;1.02;;
77160;SDS011;66135;0.000;0.000;2024-03-25T10:58:23;4.22;;;1.60;;
77160;SDS011;66135;0.000;0.000;2024-03-25T11:00:50;4.72;;;1.27;;
77160;SDS011;66135;0.000;0.000;2024-03-25T11:03:17;3.40;;;1.08;;
77160;SDS011;66135;0.000;0.000;2024-03-25T11:05:43;3.75;;;1.15;;
77160;SDS011;66135;0.000;0.000;2024-03-25T11:08:09;4.72;;;1.75;;
77160;SDS011;66135;0.000;0.000;2024-03-25T11:10:41;4.32;;;1.45;;
77160;SDS011;66135;0.000;0.000;2024-03-25T11:13:18;5.88;;;1.15;;
77160;SDS011;66135;0.000;0.000;2024-03-25T11:15:44;3.05;;;1.25;;
77160;SDS011;66135;0.000;0.000;2024-03-25T11:18:11;4.00;;;1.02;;
77160;SDS011;66135;0.000;0.000;2024-03-25T11:20:37;2.08;;;1.20;;
77160;SDS011;66135;0.000;0.000;2024-03-25T11:23:07;2.70;;;0.90;;
77160;SDS011;66135;0.000;0.000;2024-03-25T11:25:34;2.78;;;1.33;;
77160;SDS011;66135;0.000;0.000;2024-03-25T11:30:25;3.63;;;0.93;;
77160;SDS011;66135;0.000;0.000;2024-03-25T11:35:17;3.63;;;1.02;;
77160;SDS011;66135;0.000;0.000;2024-03-25T11:40:10;3.33;;;0.82;;
77160;SDS011;66135;0.000;0.000;2024-03-25T11:42:40;4.45;;;1.17;;
77160;SDS011;66135;0.000;0.000;2024-03-25T11:45:10;2.72;;;1.00;;
77160;SDS011;66135;0.000;0.000;2024-03-25T11:50:07;3.10;;;1.27;;
77160;SDS011;66135;0.000;0.000;2024-03-25T11:52:33;3.10;;;1.02;;
77160;SDS011;66135;0.000;0.000;2024-03-25T11:57:24;2.37;;;0.77;;
77160;SDS011;66135;0.000;0.000;2024-03-25T12:02:15;2.97;;;0.90;;
77160;SDS011;66135;0.000;0.000;2024-03-25T12:07:10;3.03;;;0.93;;
77160;SDS011;66135;0.000;0.000;2024-03-25T12:09:39;2.50;;;0.63;;
77160;SDS011;66135;0.000;0.000;2024-03-25T12:12:24;5.32;;;0.88;;
77160;SDS011;66135;0.000;0.000;2024-03-25T12:14:50;4.85;;;1.48;;
77160;SDS011;66135;0.000;0.000;2024-03-25T12:17:17;4.93;;;1.23;;
77160;SDS011;66135;0.000;0.000;2024-03-25T12:19:43;2.72;;;1.17;;
77160;SDS011;66135;0.000;0.000;2024-03-25T12:24:35;3.25;;;1.08;;
77160;SDS011;66135;0.000;0.000;2024-03-25T12:29:28;3.05;;;1.10;;
77160;SDS011;66135;0.000;0.000;2024-03-25T12:31:57;3.95;;;1.13;;
77160;SDS011;66135;0.000;0.000;2024-03-25T12:34:24;2.75;;;0.75;;
77160;SDS011;66135;0.000;0.000;2024-03-25T12:36:50;4.40;;;1.02;;
77160;SDS011;66135;0.000;0.000;2024-03-25T12:39:16;3.55;;;0.90;;
77160;SDS011;66135;0.000;0.000;2024-03-25T12:41:43;5.18;;;0.80;;
77160;SDS011;66135;0.000;0.000;2024-03-25T12:44:11;4.97;;;0.95;;
77160;SDS011;66135;0.000;0.000;2024-03-25T12:46:38;3.47;;;1.10;;
77160;SDS011;66135;0.000;0.000;2024-03-25T12:49:04;2.83;;;0.75;;
77160;SDS011;66135;0.000;0.000;2024-03-25T12:51:33;3.20;;;1.00;;
77160;SDS011;66135;0.000;0.000;2024-03-25T12:56:24;3.90;;;1.45;;
77160;SDS011;66135;0.000;0.000;2024-03-25T13:01:15;2.47;;;0.73;;
77160;SDS011;66135;0.000;0.000;2024-03-25T13:03:41;4.88;;;1.30;;
77160;SDS011;66135;0.000;0.000;2024-03-25T13:08:32;3.17;;;0.88;;
77160;SDS011;66135;0.000;0.000;2024-03-25T13:10:57;3.22;;;0.88;;
77160;SDS011;66135;0.000;0.000;2024-03-25T13:13:23;3.28;;;0.93;;
77160;SDS011;66135;0.000;0.000;2024-03-25T13:18:13;4.70;;;0.90;;
77160;SDS011;66135;0.000;0.000;2024-03-25T13:20:39;3.30;;;0.63;;
77160;SDS011;66135;0.000;0.000;2024-03-25T13:23:04;2.30;;;1.00;;
77160;SDS011;66135;0.000;0.000;2024-03-25T13:25:30;2.67;;;0.90;;
77160;SDS011;66135;0.000;0.000;2024-03-25T13:27:55;3.35;;;0.98;;
77160;SDS011;66135;0.000;0.000;2024-03-25T13:30:20;5.43;;;1.25;;
77160;SDS011;66135;0.000;0.000;2024-03-25T13:32:50;2.55;;;0.75;;
77160;SDS011;66135;0.000;0.000;2024-03-25T13:35:16;3.53;;;0.90;;
77160;SDS011;66135;0.000;0.000;2024-03-25T13:37:41;2.17;;;0.47;;
77160;SDS011;66135;0.000;0.000;2024-03-25T13:40:07;2.45;;;0.77;;
77160;SDS011;66135;0.000;0.000;2024-03-25T13:42:34;1.92;;;0.85;;
77160;SDS011;66135;0.000;0.000;2024-03-25T13:44:59;2.92;;;0.80;;
77160;SDS011;66135;0.000;0.000;2024-03-25T13:47:25;1.60;;;0.57;;
77160;SDS011;66135;0.000;0.000;2024-03-25T13:49:59;3.30;;;0.77;;
77160;SDS011;66135;0.000;0.000;2024-03-25T13:52:29;2.20;;;0.93;;
77160;SDS011;66135;0.000;0.000;2024-03-25T13:54:54;5.53;;;1.15;;
77160;SDS011;66135;0.000;0.000;2024-03-25T13:57:19;3.50;;;1.85;;
77160;SDS011;66135;0.000;0.000;2024-03-25T13:59:45;3.85;;;2.05;;
77160;SDS011;66135;0.000;0.000;2024-03-25T14:02:11;3.05;;;0.95;;
77160;SDS011;66135;0.000;0.000;2024-03-25T14:04:37;3.90;;;1.20;;
77160;SDS011;66135;0.000;0.000;2024-03-25T14:07:03;1.10;;;0.45;;
77160;SDS011;66135;0.000;0.000;2024-03-25T14:09:28;5.80;;;1.02;;
77160;SDS011;66135;0.000;0.000;2024-03-25T14:11:53;3.13;;;0.70;;
77160;SDS011;66135;0.000;0.000;2024-03-25T14:16:44;2.67;;;0.75;;
77160;SDS011;66135;0.000;0.000;2024-03-25T14:19:10;3.03;;;0.90;;
77160;SDS011;66135;0.000;0.000;2024-03-25T14:21:35;3.20;;;1.10;;
77160;SDS011;66135;0.000;0.000;2024-03-25T14:24:00;3.83;;;0.75;;
77160;SDS011;66135;0.000;0.000;2024-03-25T14:26:26;2.10;;;0.93;;
77160;SDS011;66135;0.000;0.000;2024-03-25T14:28:51;3.17;;;0.90;;
77160;SDS011;66135;0.000;0.000;2024-03-25T14:31:17;2.35;;;0.85;;
77160;SDS011;66135;0.000;0.000;2024-03-25T14:33:42;2.05;;;0.82;;
77160;SDS011;66135;0.000;0.000;2024-03-25T14:36:07;4.32;;;0.73;;
77160;SDS011;66135;0.000;0.000;2024-03-25T14:38:33;5.32;;;1.08;;
77160;SDS011;66135;0.000;0.000;2024-03-25T14:43:24;3.03;;;0.65;;
77160;SDS011;66135;0.000;0.000;2024-03-25T14:45:50;2.35;;;0.75;;
77160;SDS011;66135;0.000;0.000;2024-03-25T14:48:15;2.60;;;0.90;;
77160;SDS011;66135;0.000;0.000;2024-03-25T14:50:40;2.67;;;1.13;;
77160;SDS011;66135;0.000;0.000;2024-03-25T14:53:06;2.28;;;0.63;;
77160;SDS011;66135;0.000;0.000;2024-03-25T14:55:31;2.53;;;0.82;;
77160;SDS011;66135;0.000;0.000;2024-03-25T14:57:57;2.78;;;0.60;;
77160;SDS011;66135;0.000;0.000;2024-03-25T15:00:22;2.83;;;0.85;;
77160;SDS011;66135;0.000;0.000;2024-03-25T15:02:51;1.80;;;0.80;;
77160;SDS011;66135;0.000;0.000;2024-03-25T15:05:16;2.58;;;0.85;;
77160;SDS011;66135;0.000;0.000;2024-03-25T15:07:43;2.10;;;0.60;;
77160;SDS011;66135;0.000;0.000;2024-03-25T15:10:09;2.70;;;0.93;;
77160;SDS011;66135;0.000;0.000;2024-03-25T15:12:34;2.55;;;0.80;;
77160;SDS011;66135;0.000;0.000;2024-03-25T15:15:02;3.28;;;1.02;;
77160;SDS011;66135;0.000;0.000;2024-03-25T15:17:31;2.47;;;0.60;;
77160;SDS011;66135;0.000;0.000;2024-03-25T15:20:00;2.95;;;0.88;;
77160;SDS011;66135;0.000;0.000;2024-03-25T15:22:25;2.75;;;0.40;;
77160;SDS011;66135;0.000;0.000;2024-03-25T15:24:51;1.25;;;0.73;;
77160;SDS011;66135;0.000;0.000;2024-03-25T15:27:16;3.55;;;0.50;;
77160;SDS011;66135;0.000;0.000;2024-03-25T15:29:41;3.53;;;0.68;;
77160;SDS011;66135;0.000;0.000;2024-03-25T15:32:07;5.13;;;0.75;;
77160;SDS011;66135;0.000;0.000;2024-03-25T15:34:32;2.78;;;0.80;;
77160;SDS011;66135;0.000;0.000;2024-03-25T15:36:57;2.28;;;0.32;;
77160;SDS011;66135;0.000;0.000;2024-03-25T15:39:23;3.13;;;0.90;;
77160;SDS011;66135;0.000;0.000;2024-03-25T15:41:48;3.78;;;1.35;;
77160;SDS011;66135;0.000;0.000;2024-03-25T15:44:15;2.92;;;0.88;;
77160;SDS011;66135;0.000;0.000;2024-03-25T15:46:41;4.75;;;0.70;;
77160;SDS011;66135;0.000;0.000;2024-03-25T15:49:06;5.85;;;1.05;;
77160;SDS011;66135;0.000;0.000;2024-03-25T15:51:32;2.38;;;0.52;;
77160;SDS011;66135;0.000;0.000;2024-03-25T15:53:57;5.45;;;0.60;;
77160;SDS011;66135;0.000;0.000;2024-03-25T15:56:24;4.13;;;0.63;;
77160;SDS011;66135;0.000;0.000;2024-03-25T15:58:49;2.55;;;0.70;;
77160;SDS011;66135;0.000;0.000;2024-03-25T16:01:15;3.50;;;0.57;;
77160;SDS011;66135;0.000;0.000;2024-03-25T16:03:40;2.53;;;0.52;;
77160;SDS011;66135;0.000;0.000;2024-03-25T16:06:05;3.55;;;0.98;;
77160;SDS011;66135;0.000;0.000;2024-03-25T16:08:31;3.08;;;0.85;;
77160;SDS011;66135;0.000;0.000;2024-03-25T16:10:56;6.07;;;0.93;;
77160;SDS011;66135;0.000;0.000;2024-03-25T16:13:22;2.30;;;0.60;;
77160;SDS011;66135;0.000;0.000;2024-03-25T16:15:52;5.22;;;0.68;;
77160;SDS011;66135;0.000;0.000;2024-03-25T16:18:27;3.08;;;0.88;;
77160;SDS011;66135;0.000;0.000;2024-03-25T16:20:52;3.90;;;1.10;;
77160;SDS011;66135;0.000;0.000;2024-03-25T16:23:17;3.20;;;0.45;;
77160;SDS011;66135;0.000;0.000;2024-03-25T16:25:43;3.38;;;0.55;;
77160;SDS011;66135;0.000;0.000;2024-03-25T16:28:09;3.25;;;0.52;;
77160;SDS011;66135;0.000;0.000;2024-03-25T16:30:34;4.00;;;0.70;;
77160;SDS011;66135;0.000;0.000;2024-03-25T16:32:59;2.60;;;0.70;;
77160;SDS011;66135;0.000;0.000;2024-03-25T16:35:25;3.13;;;0.82;;
77160;SDS011;66135;0.000;0.000;2024-03-25T16:37:50;1.95;;;0.65;;
77160;SDS011;66135;0.000;0.000;2024-03-25T16:40:18;6.18;;;1.33;;
77160;SDS011;66135;0.000;0.000;2024-03-25T16:42:43;3.05;;;1.13;;
77160;SDS011;66135;0.000;0.000;2024-03-25T16:45:08;7.25;;;1.92;;
77160;SDS011;66135;0.000;0.000;2024-03-25T16:47:34;3.00;;;0.60;;
77160;SDS011;66135;0.000;0.000;2024-03-25T16:50:00;4.90;;;0.75;;
77160;SDS011;66135;0.000;0.000;2024-03-25T16:52:25;4.03;;;0.98;;
77160;SDS011;66135;0.000;0.000;2024-03-25T16:54:50;1.77;;;0.80;;
77160;SDS011;66135;0.000;0.000;2024-03-25T16:57:16;3.67;;;0.73;;
77160;SDS011;66135;0.000;0.000;2024-03-25T16:59:41;3.83;;;0.93;;
77160;SDS011;66135;0.000;0.000;2024-03-25T17:02:06;4.57;;;0.55;;
77160;SDS011;66135;0.000;0.000;2024-03-25T17:04:32;2.75;;;0.55;;
77160;SDS011;66135;0.000;0.000;2024-03-25T17:06:58;3.22;;;0.93;;
77160;SDS011;66135;0.000;0.000;2024-03-25T17:09:23;3.30;;;0.55;;
77160;SDS011;66135;0.000;0.000;2024-03-25T17:11:49;2.83;;;0.75;;
77160;SDS011;66135;0.000;0.000;2024-03-25T17:14:16;3.28;;;0.47;;
77160;SDS011;66135;0.000;0.000;2024-03-25T17:16:42;5.80;;;0.75;;
77160;SDS011;66135;0.000;0.000;2024-03-25T17:19:08;2.47;;;0.60;;